createdAt,value
2022-11-22T00:00:46.703Z,98922.34
2022-11-22T00:03:13.947Z,98929.19
2022-11-22T00:05:41.172Z,98937.00
2022-11-22T00:08:08.790Z,98931.78
2022-11-22T00:10:36.167Z,98935.97
2022-11-22T00:13:04.727Z,98930.78
2022-11-22T00:15:32.392Z,98936.91
2022-11-22T00:17:59.776Z,98930.78
2022-11-22T00:20:27.078Z,98936.69
2022-11-22T00:22:56.206Z,98944.19
2022-11-22T00:25:23.478Z,98941.41
2022-11-22T00:27:50.725Z,98935.28
2022-11-22T00:30:18.065Z,98925.63
2022-11-22T00:32:45.365Z,98934.06
2022-11-22T00:35:13.102Z,98929.81
2022-11-22T00:37:40.376Z,98926.38
2022-11-22T00:40:08.508Z,98921.91
2022-11-22T00:42:35.677Z,98933.97
2022-11-22T00:45:02.993Z,98924.41
2022-11-22T00:47:30.195Z,98930.31
2022-11-22T00:49:57.441Z,98934.50
2022-11-22T00:52:24.684Z,98931.81
2022-11-22T00:54:54.996Z,98940.22
2022-11-22T00:57:23.441Z,98940.31
2022-11-22T00:59:50.637Z,98948.97
2022-11-22T01:02:17.872Z,98940.03
2022-11-22T01:04:45.046Z,98936.50
2022-11-22T01:07:12.728Z,98932.88
2022-11-22T01:09:40.181Z,98925.81
2022-11-22T01:12:08.439Z,98931.56
2022-11-22T01:14:35.684Z,98926.47
2022-11-22T01:17:03.163Z,98930.00
2022-11-22T01:19:30.560Z,98936.13
2022-11-22T01:21:58.086Z,98930.13
2022-11-22T01:24:25.383Z,98928.34
2022-11-22T01:26:52.653Z,98926.56
2022-11-22T01:29:19.933Z,98935.22
2022-11-22T01:31:47.335Z,98933.44
2022-11-22T01:34:14.543Z,98933.53
2022-11-22T01:36:41.712Z,98930.13
2022-11-22T01:39:08.954Z,98932.03
2022-11-22T01:41:36.573Z,98930.47
2022-11-22T01:44:31.879Z,98931.50
2022-11-22T01:47:21.233Z,98935.13
2022-11-22T01:50:00.484Z,98943.13
2022-11-22T01:52:33.899Z,98951.13
2022-11-22T01:55:12.817Z,98948.72
2022-11-22T01:57:44.485Z,98955.78
2022-11-22T02:00:17.052Z,98948.19
2022-11-22T02:02:58.595Z,98955.34
2022-11-22T02:05:32.666Z,98956.19
2022-11-22T02:08:35.861Z,98972.88
2022-11-22T02:11:05.448Z,98960.19
2022-11-22T02:13:42.415Z,98959.38
2022-11-22T02:16:12.065Z,98957.88
2022-11-22T02:18:40.088Z,98966.72
2022-11-22T02:21:09.088Z,98979.91
2022-11-22T02:23:50.882Z,98955.84
2022-11-22T02:26:18.348Z,98963.84
2022-11-22T02:28:46.126Z,98966.63
2022-11-22T02:31:45.466Z,98972.78
2022-11-22T02:34:14.308Z,98959.97
2022-11-22T02:36:52.013Z,98963.59
2022-11-22T02:39:29.033Z,98967.09
2022-11-22T02:41:57.795Z,98967.19
2022-11-22T02:44:25.894Z,98961.00
2022-11-22T02:46:55.710Z,98974.06
2022-11-22T02:49:25.422Z,98975.84
2022-11-22T02:51:53.716Z,98982.78
2022-11-22T02:54:21.600Z,98985.28
2022-11-22T02:56:49.128Z,98980.19
2022-11-22T02:59:16.405Z,98987.16
2022-11-22T03:01:46.566Z,98986.34
2022-11-22T03:04:24.666Z,98981.41
2022-11-22T03:06:56.250Z,98986.91
2022-11-22T03:09:27.504Z,98986.06
2022-11-22T03:11:55.652Z,98993.97
2022-11-22T03:14:23.488Z,98990.59
2022-11-22T03:16:51.393Z,98996.75
2022-11-22T03:19:18.859Z,99008.13
2022-11-22T03:21:46.708Z,98998.75
2022-11-22T03:24:14.402Z,99005.91
2022-11-22T03:26:41.858Z,99001.44
2022-11-22T03:29:09.027Z,98995.63
2022-11-22T03:31:36.484Z,99010.47
2022-11-22T03:34:03.997Z,99009.69
2022-11-22T03:36:31.169Z,99013.53
2022-11-22T03:38:59.285Z,99011.00
2022-11-22T03:41:26.477Z,99017.22
2022-11-22T03:43:53.679Z,99017.41
2022-11-22T03:46:21.013Z,99013.22
2022-11-22T03:48:48.200Z,99015.91
2022-11-22T03:51:15.555Z,99014.34
2022-11-22T03:53:42.970Z,99012.84
2022-11-22T03:56:10.370Z,99006.06
2022-11-22T03:58:37.581Z,99018.31
2022-11-22T04:01:04.921Z,99022.00
2022-11-22T04:03:32.271Z,99022.16
2022-11-22T04:05:59.582Z,99027.53
2022-11-22T04:08:26.810Z,99029.47
2022-11-22T04:10:53.996Z,99033.94
2022-11-22T04:13:21.281Z,99028.84
2022-11-22T04:15:48.402Z,99029.84
2022-11-22T04:18:15.663Z,99027.34
2022-11-22T04:21:01.687Z,99035.28
2022-11-22T04:23:33.829Z,99031.97
2022-11-22T04:26:02.614Z,99034.72
2022-11-22T04:31:35.696Z,99027.88
2022-11-22T04:34:02.871Z,99040.00
2022-11-22T04:36:30.096Z,99041.91
2022-11-22T04:38:57.289Z,99051.63
2022-11-22T04:41:24.470Z,99054.50
2022-11-22T04:44:10.279Z,99054.66
2022-11-22T04:46:38.254Z,99053.59
2022-11-22T04:49:05.425Z,99054.59
2022-11-22T04:51:52.341Z,99057.44
2022-11-22T04:54:19.549Z,99051.59
2022-11-22T04:56:47.281Z,99059.63
2022-11-22T04:59:14.611Z,99063.94
2022-11-22T05:01:41.742Z,99067.66
2022-11-22T05:04:08.893Z,99065.97
2022-11-22T05:06:37.696Z,99071.97
2022-11-22T05:09:05.433Z,99053.94
2022-11-22T05:11:32.648Z,99065.31
2022-11-22T05:13:59.776Z,99066.31
2022-11-22T05:16:26.966Z,99078.63
2022-11-22T05:19:00.216Z,99072.66
2022-11-22T05:21:29.656Z,99072.94
2022-11-22T05:23:57.228Z,99080.81
2022-11-22T05:26:29.681Z,99081.97
2022-11-22T05:28:58.683Z,99066.50
2022-11-22T05:31:27.852Z,99072.50
2022-11-22T05:33:57.855Z,99066.41
2022-11-22T05:36:25.860Z,99069.09
2022-11-22T05:38:54.577Z,99065.66
2022-11-22T05:41:21.783Z,99062.22
2022-11-22T05:43:49.032Z,99058.88
2022-11-22T05:46:25.171Z,99066.66
2022-11-22T05:48:56.208Z,99074.53
2022-11-22T05:51:33.569Z,99065.06
2022-11-22T05:54:03.469Z,99066.91
2022-11-22T05:56:30.723Z,99067.00
2022-11-22T05:58:58.544Z,99068.00
2022-11-22T06:01:25.944Z,99070.66
2022-11-22T06:03:54.638Z,99065.56
2022-11-22T06:06:22.026Z,99070.81
2022-11-22T06:08:49.638Z,99076.09
2022-11-22T06:11:25.288Z,99065.81
2022-11-22T06:13:57.600Z,99069.34
2022-11-22T06:16:27.114Z,99060.72
2022-11-22T06:18:54.765Z,99065.16
2022-11-22T06:21:25.721Z,99060.06
2022-11-22T06:23:55.477Z,99071.31
2022-11-22T06:26:25.078Z,99069.75
2022-11-22T06:28:54.030Z,99070.56
2022-11-22T06:31:27.872Z,99067.06
2022-11-22T06:33:59.647Z,99068.81
2022-11-22T06:36:31.375Z,99063.94
2022-11-22T06:38:58.838Z,99061.13
2022-11-22T06:41:32.902Z,99072.50
2022-11-22T06:44:05.417Z,99070.72
2022-11-22T06:46:33.511Z,99069.91
2022-11-22T06:49:01.198Z,99070.91
2022-11-22T06:51:32.313Z,99071.81
2022-11-22T06:53:59.496Z,99071.06
2022-11-22T06:56:40.920Z,99089.94
2022-11-22T06:59:09.663Z,99090.88
2022-11-22T07:01:38.719Z,99095.28
2022-11-22T07:04:07.845Z,99091.09
2022-11-22T07:06:38.793Z,99097.03
2022-11-22T07:09:11.267Z,99104.66
2022-11-22T07:11:41.230Z,99104.41
2022-11-22T07:14:09.444Z,99114.44
2022-11-22T07:16:39.756Z,99114.84
2022-11-22T07:19:07.681Z,99122.38
2022-11-22T07:21:37.429Z,99122.31
2022-11-22T07:24:07.003Z,99117.81
2022-11-22T07:26:34.252Z,99112.31
2022-11-22T07:29:01.482Z,99119.84
2022-11-22T07:31:29.142Z,99120.50
2022-11-22T07:33:59.896Z,99124.41
2022-11-22T07:36:29.585Z,99130.44
2022-11-22T07:38:57.056Z,99136.28
2022-11-22T07:41:24.837Z,99128.44
2022-11-22T07:43:53.142Z,99139.47
2022-11-22T07:46:31.500Z,99134.19
2022-11-22T07:49:01.559Z,99130.78
2022-11-22T07:51:30.126Z,99131.34
2022-11-22T07:53:58.852Z,99142.41
2022-11-22T07:56:26.234Z,99138.97
2022-11-22T07:58:53.456Z,99132.03
2022-11-22T08:01:21.755Z,99133.63
2022-11-22T08:03:49.024Z,99135.94
2022-11-22T08:06:16.733Z,99139.06
2022-11-22T08:08:44.477Z,99139.81
2022-11-22T08:11:12.815Z,99140.53
2022-11-22T08:13:41.463Z,99136.97
2022-11-22T08:16:16.493Z,99134.28
2022-11-22T08:18:49.777Z,99134.75
2022-11-22T08:21:19.210Z,99125.97
2022-11-22T08:23:50.144Z,99131.75
2022-11-22T08:26:18.679Z,99137.53
2022-11-22T08:28:45.889Z,99133.00
2022-11-22T08:31:19.887Z,99129.31
2022-11-22T08:33:48.861Z,99131.72
2022-11-22T08:36:16.068Z,99146.19
2022-11-22T08:38:43.365Z,99131.28
2022-11-22T08:41:11.391Z,99129.44
2022-11-22T08:43:38.995Z,99142.22
2022-11-22T08:46:07.419Z,99143.75
2022-11-22T08:48:37.889Z,99144.47
2022-11-22T08:51:12.270Z,99150.31
2022-11-22T08:53:43.279Z,99155.34
2022-11-22T08:56:15.924Z,99157.00
2022-11-22T08:58:43.769Z,99165.53
2022-11-22T09:01:16.787Z,99156.09
2022-11-22T09:03:45.511Z,99159.53
2022-11-22T09:09:35.894Z,99144.59
2022-11-22T09:11:53.445Z,99145.19
2022-11-22T09:14:20.679Z,99162.91
2022-11-22T09:16:47.911Z,99153.00
2022-11-22T09:19:15.298Z,99160.69
2022-11-22T09:21:42.498Z,99156.16
2022-11-22T09:24:09.683Z,99167.19
2022-11-22T09:26:39.401Z,99166.72
2022-11-22T09:29:06.661Z,99172.50
2022-11-22T09:31:36.138Z,99174.75
2022-11-22T09:34:04.980Z,99168.69
2022-11-22T09:36:32.175Z,99166.94
2022-11-22T09:38:59.747Z,99161.66
2022-11-22T09:42:00.385Z,99157.19
2022-11-22T09:44:58.355Z,99156.09
2022-11-22T09:48:14.956Z,99166.03
2022-11-22T09:51:12.412Z,99156.91
2022-11-22T09:54:19.325Z,99159.22
2022-11-22T09:56:52.596Z,99157.22
2022-11-22T09:59:33.652Z,99160.34
2022-11-22T10:02:29.545Z,99159.88
2022-11-22T10:05:12.688Z,99157.75
2022-11-22T10:07:57.749Z,99158.44
2022-11-22T10:10:42.771Z,99169.56
2022-11-22T10:13:31.167Z,99165.00
2022-11-22T10:16:19.356Z,99161.28
2022-11-22T10:19:24.253Z,99154.59
2022-11-22T10:21:51.577Z,99166.47
2022-11-22T10:24:19.821Z,99147.66
2022-11-22T10:26:47.839Z,99163.25
2022-11-22T10:30:06.290Z,99154.69
2022-11-22T10:33:15.280Z,99156.06
2022-11-22T10:36:13.133Z,99161.09
2022-11-22T10:38:59.893Z,99156.66
2022-11-22T10:41:56.965Z,99153.13
2022-11-22T10:45:15.159Z,99150.25
2022-11-22T10:47:57.144Z,99143.38
2022-11-22T10:50:59.117Z,99143.25
2022-11-22T10:54:03.870Z,99149.19
2022-11-22T10:57:00.018Z,99136.84
2022-11-22T11:00:03.244Z,99132.91
2022-11-22T11:03:22.024Z,99133.19
2022-11-22T11:06:38.056Z,99124.34
2022-11-22T11:10:03.398Z,99127.50
2022-11-22T11:11:56.146Z,99134.91
2022-11-22T11:14:45.527Z,99113.03
2022-11-22T11:17:29.869Z,99118.28
2022-11-22T11:20:05.578Z,99116.84
2022-11-22T11:23:06.931Z,99115.53
2022-11-22T11:25:43.227Z,99119.16
2022-11-22T11:28:28.395Z,99115.25
2022-11-22T11:31:10.164Z,99104.00
2022-11-22T11:33:41.114Z,99106.50
2022-11-22T11:36:24.609Z,99102.13
2022-11-22T11:38:58.127Z,99109.19
2022-11-22T11:41:40.323Z,99106.59
2022-11-22T11:44:36.402Z,99103.34
2022-11-22T11:47:05.036Z,99096.69
2022-11-22T11:49:35.003Z,99092.31
2022-11-22T11:52:16.015Z,99100.94
2022-11-22T11:54:52.570Z,99094.91
2022-11-22T11:57:44.517Z,99098.88
2022-11-22T12:00:39.979Z,99099.81
2022-11-22T12:03:16.073Z,99097.22
2022-11-22T12:05:43.311Z,99102.53
2022-11-22T12:08:32.187Z,99101.91
2022-11-22T12:11:11.975Z,99101.25
2022-11-22T12:16:53.232Z,99102.31
2022-11-22T12:19:58.112Z,99108.34
2022-11-22T12:22:52.941Z,99103.03
2022-11-22T12:25:39.024Z,99100.31
2022-11-22T12:28:26.115Z,99097.53
2022-11-22T12:31:27.038Z,99102.63
2022-11-22T12:34:07.628Z,99104.09
2022-11-22T12:37:05.616Z,99100.22
2022-11-22T12:39:37.219Z,99097.53
2022-11-22T12:42:44.162Z,99102.63
2022-11-22T12:45:43.304Z,99100.47
2022-11-22T12:48:51.804Z,99106.28
2022-11-22T12:51:52.863Z,99093.38
2022-11-22T12:54:34.833Z,99087.13
2022-11-22T12:57:22.884Z,99097.56
2022-11-22T13:00:18.631Z,99087.03
2022-11-22T13:03:13.112Z,99091.38
2022-11-22T13:05:58.618Z,99085.75
2022-11-22T13:09:03.924Z,99082.03
2022-11-22T13:12:05.365Z,99071.72
2022-11-22T13:14:55.615Z,99079.41
2022-11-22T13:17:30.208Z,99079.31
2022-11-22T13:20:08.539Z,99075.78
2022-11-22T13:23:03.172Z,99076.72
2022-11-22T13:26:13.259Z,99072.44
2022-11-22T13:28:44.712Z,99073.38
2022-11-22T13:31:12.317Z,99074.22
2022-11-22T13:33:57.351Z,99065.88
2022-11-22T13:36:30.197Z,99082.03
2022-11-22T13:39:17.913Z,99078.59
2022-11-22T13:41:56.692Z,99069.81
2022-11-22T13:44:23.768Z,99080.25
2022-11-22T13:46:57.048Z,99077.75
2022-11-22T13:49:48.986Z,99077.63
2022-11-22T13:52:16.430Z,99077.41
2022-11-22T13:55:22.086Z,99071.50
2022-11-22T13:57:49.398Z,99072.22
2022-11-22T14:00:21.557Z,99070.47
2022-11-22T14:03:16.434Z,99078.16
2022-11-22T14:05:56.940Z,99088.59
2022-11-22T14:08:43.909Z,99088.38
2022-11-22T14:11:47.347Z,99089.09
2022-11-22T14:14:26.340Z,99080.47
2022-11-22T14:17:37.103Z,99073.56
2022-11-22T14:20:19.903Z,99079.50
2022-11-22T14:23:40.920Z,99080.25
2022-11-22T14:26:31.499Z,99079.19
2022-11-22T14:30:02.281Z,99078.56
2022-11-22T14:32:50.605Z,99076.91
2022-11-22T14:35:38.052Z,99079.59
2022-11-22T14:38:28.842Z,99079.91
2022-11-22T14:41:43.156Z,99078.38
2022-11-22T14:44:26.386Z,99074.94
2022-11-22T14:47:04.082Z,99058.06
2022-11-22T14:49:49.712Z,99062.22
2022-11-22T14:52:30.577Z,99066.69
2022-11-22T14:55:06.459Z,99059.59
2022-11-22T14:57:37.118Z,99064.00
2022-11-22T15:00:25.411Z,99074.41
2022-11-22T15:03:07.604Z,99080.44
2022-11-22T15:09:17.051Z,99082.84
2022-11-22T15:10:08.323Z,99082.63
2022-11-22T15:13:12.358Z,99080.78
2022-11-22T15:57:52.178Z,99113.53
2022-11-22T16:00:29.219Z,99109.66
2022-11-22T16:03:01.643Z,99112.47
2022-11-22T16:06:10.076Z,99116.53
2022-11-22T16:08:27.948Z,99117.13
2022-11-22T16:10:59.896Z,99113.91
2022-11-22T16:13:34.276Z,99119.19
2022-11-22T16:16:13.396Z,99112.31
2022-11-22T16:18:43.616Z,99107.13
2022-11-22T16:21:13.762Z,99114.81
2022-11-22T16:24:18.063Z,99107.00
2022-11-22T16:27:15.437Z,99112.94
2022-11-22T16:29:51.987Z,99124.22
2022-11-22T16:32:19.905Z,99127.53
2022-11-22T16:34:51.627Z,99126.72
2022-11-22T16:37:38.242Z,99124.84
2022-11-22T16:40:08.034Z,99123.91
2022-11-22T16:42:38.206Z,99122.03
2022-11-22T16:45:14.467Z,99125.47
2022-11-22T16:47:41.714Z,99128.06
2022-11-22T16:50:16.737Z,99139.19
2022-11-22T16:52:45.970Z,99128.78
2022-11-22T16:55:20.146Z,99131.28
2022-11-22T16:57:47.413Z,99131.38
2022-11-22T17:00:15.937Z,99127.25
2022-11-22T17:02:43.281Z,99142.13
2022-11-22T17:05:17.292Z,99142.31
2022-11-22T17:07:45.674Z,99140.66
2022-11-22T17:10:12.855Z,99139.72
2022-11-22T17:12:40.416Z,99145.03
2022-11-22T17:15:16.201Z,99142.31
2022-11-22T17:17:43.377Z,99137.13
2022-11-22T17:20:11.213Z,99132.75
2022-11-22T17:22:40.711Z,99143.97
2022-11-22T17:25:13.833Z,99142.13
2022-11-22T17:27:41.125Z,99146.28
2022-11-22T17:30:09.836Z,99141.81
2022-11-22T17:32:37.228Z,99143.47
2022-11-22T17:35:05.347Z,99153.78
2022-11-22T17:37:32.537Z,99157.88
2022-11-22T17:39:59.686Z,99152.56
2022-11-22T17:42:27.552Z,99170.59
2022-11-22T17:44:54.773Z,99158.19
2022-11-22T17:47:22.033Z,99158.09
2022-11-22T17:49:49.524Z,99160.41
2022-11-22T17:52:16.784Z,99162.81
2022-11-22T17:54:43.906Z,99157.50
2022-11-22T17:57:11.227Z,99166.03
2022-11-22T17:59:38.412Z,99160.72
2022-11-22T18:02:05.690Z,99162.41
2022-11-22T18:04:33.051Z,99161.38
2022-11-22T18:07:00.404Z,99168.25
2022-11-22T18:09:27.987Z,99169.09
2022-11-22T18:11:55.488Z,99170.75
2022-11-22T18:14:23.402Z,99176.72
2022-11-22T18:16:50.661Z,99175.03
2022-11-22T18:19:17.897Z,99170.66
2022-11-22T18:21:45.195Z,99183.66
2022-11-22T18:24:12.622Z,99177.53
2022-11-22T18:26:41.111Z,99178.25
2022-11-22T18:31:58.314Z,99180.88
2022-11-22T18:34:25.698Z,99187.84
2022-11-22T18:36:56.338Z,99189.63
2022-11-22T18:39:27.172Z,99191.19
2022-11-22T18:41:54.381Z,99192.13
2022-11-22T18:44:21.656Z,99194.09
2022-11-22T18:46:49.210Z,99190.97
2022-11-22T18:49:16.645Z,99185.13
2022-11-22T18:51:43.971Z,99185.53
2022-11-22T18:54:11.773Z,99183.66
2022-11-22T18:56:40.207Z,99182.06
2022-11-22T18:59:12.713Z,99191.75
2022-11-22T19:01:41.658Z,99184.97
2022-11-22T19:04:16.456Z,99182.56
2022-11-22T19:06:45.090Z,99190.94
2022-11-22T19:09:12.419Z,99189.97
2022-11-22T19:11:39.658Z,99189.97
2022-11-22T19:14:07.162Z,99201.34
2022-11-22T19:16:34.706Z,99195.38
2022-11-22T19:19:02.077Z,99197.97
2022-11-22T19:21:30.635Z,99200.59
2022-11-22T19:23:58.312Z,99202.38
2022-11-22T19:26:28.100Z,99198.94
2022-11-22T19:28:57.628Z,99189.53
2022-11-22T19:31:29.162Z,99184.22
2022-11-22T19:33:58.924Z,99193.16
2022-11-22T19:36:33.405Z,99193.16
2022-11-22T19:39:04.596Z,99194.03
2022-11-22T19:41:32.876Z,99200.06
2022-11-22T19:44:00.733Z,99197.34
2022-11-22T19:46:29.267Z,99192.97
2022-11-22T19:49:01.276Z,99196.44
2022-11-22T19:51:31.128Z,99207.66
2022-11-22T19:54:03.179Z,99198.94
2022-11-22T19:56:38.339Z,99190.25
2022-11-22T19:59:08.278Z,99199.47
2022-11-22T20:01:35.768Z,99190.63
2022-11-22T20:04:06.233Z,99194.88
2022-11-22T20:06:36.037Z,99203.53
2022-11-22T20:09:12.954Z,99197.38
2022-11-22T20:11:42.849Z,99204.91
2022-11-22T20:14:11.034Z,99208.34
2022-11-22T20:16:42.826Z,99210.56
2022-11-22T20:19:12.354Z,99207.84
2022-11-22T20:21:41.293Z,99213.06
2022-11-22T20:24:09.186Z,99207.66
2022-11-22T20:26:36.515Z,99214.41
2022-11-22T20:29:12.837Z,99214.41
2022-11-22T20:31:43.435Z,99215.38
2022-11-22T20:34:11.040Z,99218.91
2022-11-22T20:36:38.224Z,99220.69
2022-11-22T20:39:10.323Z,99224.22
2022-11-22T20:41:40.424Z,99219.94
2022-11-22T20:44:13.751Z,99230.34
2022-11-22T20:46:42.014Z,99229.31
2022-11-22T20:49:09.200Z,99217.13
2022-11-22T20:51:39.464Z,99227.44
2022-11-22T20:54:08.819Z,99222.78
2022-11-22T20:56:38.342Z,99220.19
2022-11-22T20:59:05.806Z,99223.50
2022-11-22T21:01:33.433Z,99230.41
2022-11-22T21:04:00.738Z,99230.31
2022-11-22T21:06:30.241Z,99233.72
2022-11-22T21:08:57.555Z,99228.53
2022-11-22T21:11:28.442Z,99215.41
2022-11-22T21:13:57.939Z,99226.63
2022-11-22T21:16:30.527Z,99231.66
2022-11-22T21:19:06.896Z,99234.16
2022-11-22T21:21:37.135Z,99235.94
2022-11-22T21:24:07.098Z,99239.38
2022-11-22T21:26:34.731Z,99241.25
2022-11-22T21:29:04.135Z,99248.03
2022-11-22T21:31:33.820Z,99253.34
2022-11-22T21:34:01.047Z,99247.28
2022-11-22T21:36:28.290Z,99254.91
2022-11-22T21:38:55.481Z,99255.00
2022-11-22T21:41:40.240Z,99262.19
2022-11-22T21:44:09.418Z,99253.53
2022-11-22T21:46:40.116Z,99261.47
2022-11-22T21:49:07.413Z,99262.38
2022-11-22T21:51:34.704Z,99258.84
2022-11-22T21:54:04.000Z,99260.59
2022-11-22T21:56:31.700Z,99257.06
2022-11-22T21:58:59.353Z,99264.06
2022-11-22T22:01:27.824Z,99260.69
2022-11-22T22:03:55.142Z,99272.09
2022-11-22T22:06:22.613Z,99265.81
2022-11-22T22:08:50.043Z,99275.22
2022-11-22T22:11:17.687Z,99272.59
2022-11-22T22:13:45.085Z,99275.94
2022-11-22T22:16:18.449Z,99263.09
2022-11-22T22:18:46.459Z,99270.72
2022-11-22T22:21:19.239Z,99282.09
2022-11-22T22:23:47.688Z,99274.38
2022-11-22T22:26:17.999Z,99273.44
2022-11-22T22:28:46.272Z,99274.28
2022-11-22T22:31:23.074Z,99273.34
2022-11-22T22:33:57.835Z,99278.63
2022-11-22T22:36:27.215Z,99277.81
2022-11-22T22:38:55.110Z,99278.75
2022-11-22T22:41:22.751Z,99278.00
2022-11-22T22:43:50.063Z,99285.00
2022-11-22T22:46:21.976Z,99277.28
2022-11-22T22:48:50.835Z,99282.59
2022-11-22T22:51:31.875Z,99291.34
2022-11-22T22:54:00.697Z,99288.72
2022-11-22T22:56:31.061Z,99288.63
2022-11-22T22:59:01.466Z,99289.34
2022-11-22T23:01:31.572Z,99290.22
2022-11-22T23:04:01.911Z,99298.13
2022-11-22T23:06:34.304Z,99305.00
2022-11-22T23:09:04.613Z,99308.56
2022-11-22T23:11:52.588Z,99306.13
2022-11-22T23:14:27.614Z,99304.16
2022-11-22T23:16:57.971Z,99311.88
2022-11-22T23:19:29.154Z,99314.47
2022-11-22T23:21:56.652Z,99319.69
2022-11-22T23:24:24.000Z,99317.09
2022-11-22T23:26:51.430Z,99321.38
2022-11-22T23:29:18.914Z,99326.69
2022-11-22T23:31:46.125Z,99317.09
2022-11-22T23:34:16.241Z,99328.34
2022-11-22T23:36:43.512Z,99336.06
2022-11-22T23:39:11.586Z,99341.25
2022-11-22T23:41:38.720Z,99343.03
2022-11-22T23:44:06.266Z,99342.94
2022-11-22T23:46:33.434Z,99345.44
2022-11-22T23:49:03.985Z,99347.22
2022-11-22T23:51:33.504Z,99345.44
2022-11-22T23:54:06.165Z,99349.66
2022-11-22T23:56:35.261Z,99350.66
2022-11-22T23:59:05.616Z,99353.81
